createdAt,value
2023-01-09T00:00:30.501Z,7.67
2023-01-09T00:05:36.055Z,7.65
2023-01-09T00:10:41.709Z,7.58
2023-01-09T00:15:49.133Z,7.50
2023-01-09T00:20:54.654Z,7.38
2023-01-09T00:26:15.567Z,7.32
2023-01-09T00:31:23.084Z,7.31
2023-01-09T00:36:29.037Z,7.23
2023-01-09T00:41:44.599Z,7.24
2023-01-09T00:46:53.027Z,7.13
2023-01-09T00:51:58.682Z,7.11
2023-01-09T00:57:04.275Z,7.02
2023-01-09T01:02:10.585Z,7.02
2023-01-09T01:07:33.580Z,6.98
2023-01-09T01:12:40.678Z,6.97
2023-01-09T01:17:47.111Z,7.03
2023-01-09T01:22:52.623Z,7.10
2023-01-09T01:27:58.401Z,7.16
2023-01-09T01:33:03.931Z,7.16
2023-01-09T01:38:09.434Z,7.24
2023-01-09T01:43:14.947Z,7.27
2023-01-09T01:48:25.928Z,7.24
2023-01-09T01:53:43.395Z,7.23
2023-01-09T01:59:04.193Z,7.22
2023-01-09T02:04:10.322Z,7.19
2023-01-09T02:09:18.043Z,7.16
2023-01-09T02:14:32.567Z,7.14
2023-01-09T02:20:14.375Z,7.06
2023-01-09T02:25:39.114Z,7.02
2023-01-09T02:31:16.352Z,7.04
2023-01-09T02:36:36.758Z,6.98
2023-01-09T02:41:53.821Z,6.87
2023-01-09T02:47:11.526Z,6.86
2023-01-09T02:52:31.639Z,6.80
2023-01-09T02:57:58.308Z,6.76
2023-01-09T03:03:07.222Z,6.77
2023-01-09T03:08:15.861Z,6.71
2023-01-09T03:13:24.357Z,6.71
2023-01-09T03:18:32.778Z,6.73
2023-01-09T03:23:53.596Z,6.73
2023-01-09T03:29:00.091Z,6.68
2023-01-09T03:34:05.606Z,6.78
2023-01-09T03:39:11.253Z,6.79
2023-01-09T03:44:16.706Z,6.76
2023-01-09T03:49:23.237Z,6.77
2023-01-09T03:54:28.697Z,6.74
2023-01-09T03:59:35.832Z,6.77
2023-01-09T04:04:41.768Z,6.82
2023-01-09T04:09:47.158Z,6.85
2023-01-09T04:14:52.615Z,6.92
2023-01-09T04:19:59.319Z,6.98
2023-01-09T04:25:05.351Z,7.02
2023-01-09T04:30:11.950Z,7.04
2023-01-09T04:35:17.442Z,7.00
2023-01-09T04:40:22.978Z,6.98
2023-01-09T04:45:28.590Z,7.03
2023-01-09T04:50:34.208Z,7.00
2023-01-09T04:55:41.424Z,7.08
2023-01-09T05:00:46.903Z,7.02
2023-01-09T05:05:52.404Z,7.02
2023-01-09T05:10:57.944Z,7.09
2023-01-09T05:16:03.583Z,7.11
2023-01-09T05:21:09.146Z,7.17
2023-01-09T05:26:14.603Z,7.21
2023-01-09T05:31:21.227Z,7.21
2023-01-09T05:36:26.755Z,7.23
2023-01-09T05:41:32.411Z,7.23
2023-01-09T05:46:37.937Z,7.26
2023-01-09T05:51:43.397Z,7.28
2023-01-09T05:56:48.851Z,7.25
2023-01-09T06:01:54.582Z,7.33
2023-01-09T06:07:00.287Z,7.37
2023-01-09T06:12:06.160Z,7.35
2023-01-09T06:17:12.055Z,7.43
2023-01-09T06:22:18.823Z,7.63
2023-01-09T06:27:24.209Z,7.64
2023-01-09T06:32:29.936Z,7.61
2023-01-09T06:37:35.494Z,7.67
2023-01-09T06:42:42.502Z,7.63
2023-01-09T06:47:48.476Z,7.60
2023-01-09T06:52:54.427Z,7.59
2023-01-09T06:57:59.881Z,7.48
2023-01-09T07:03:06.437Z,7.53
2023-01-09T07:08:11.822Z,7.54
2023-01-09T07:13:17.350Z,7.59
2023-01-09T07:18:22.909Z,7.68
2023-01-09T07:23:28.506Z,7.62
2023-01-09T07:28:33.998Z,7.53
2023-01-09T07:33:40.557Z,7.38
2023-01-09T07:38:46.077Z,7.39
2023-01-09T07:43:51.463Z,7.35
2023-01-09T07:48:56.983Z,7.48
2023-01-09T07:54:02.535Z,7.52
2023-01-09T07:59:08.052Z,7.43
2023-01-09T08:04:14.060Z,7.48
2023-01-09T08:09:19.574Z,7.44
2023-01-09T08:14:25.202Z,7.42
2023-01-09T08:19:30.698Z,7.44
2023-01-09T08:24:36.908Z,7.45
2023-01-09T08:29:42.362Z,7.43
2023-01-09T08:34:47.847Z,7.44
2023-01-09T08:39:53.618Z,7.43
2023-01-09T08:45:17.058Z,7.41
2023-01-09T08:50:22.513Z,7.29
2023-01-09T08:55:28.252Z,7.28
2023-01-09T09:00:33.711Z,7.27
2023-01-09T09:05:39.238Z,7.38
2023-01-09T09:10:44.688Z,7.43
2023-01-09T09:15:50.223Z,7.50
2023-01-09T09:20:55.702Z,7.49
2023-01-09T09:26:01.161Z,7.50
2023-01-09T09:31:07.613Z,7.58
2023-01-09T09:36:13.299Z,7.61
2023-01-09T09:41:48.120Z,7.73
2023-01-09T09:47:05.453Z,8.07
2023-01-09T09:52:14.015Z,8.93
2023-01-09T09:57:22.491Z,8.35
2023-01-09T10:02:33.291Z,8.22
2023-01-09T10:07:42.367Z,8.25
2023-01-09T10:12:52.411Z,8.24
2023-01-09T10:18:00.842Z,8.28
2023-01-09T10:23:15.022Z,8.21
2023-01-09T10:28:42.944Z,8.28
2023-01-09T10:34:00.214Z,8.26
2023-01-09T10:39:09.234Z,8.40
2023-01-09T10:44:23.529Z,8.33
2023-01-09T10:49:29.729Z,8.23
2023-01-09T10:54:36.878Z,8.25
2023-01-09T10:59:43.971Z,8.30
2023-01-09T11:04:49.743Z,8.29
2023-01-09T11:10:01.294Z,8.30
2023-01-09T11:15:23.528Z,8.45
2023-01-09T11:20:31.409Z,8.21
2023-01-09T11:25:36.839Z,8.30
2023-01-09T11:31:00.669Z,8.27
2023-01-09T11:36:14.771Z,8.39
2023-01-09T11:41:23.587Z,8.32
2023-01-09T11:46:38.080Z,8.51
2023-01-09T11:51:44.852Z,8.64
2023-01-09T11:56:51.669Z,8.61
2023-01-09T12:02:17.111Z,8.58
2023-01-09T12:08:02.204Z,8.59
2023-01-09T12:13:36.563Z,8.51
2023-01-09T12:18:56.978Z,8.50
2023-01-09T12:24:05.419Z,8.47
2023-01-09T12:29:19.595Z,8.38
2023-01-09T12:34:37.545Z,8.54
2023-01-09T12:40:00.411Z,8.41
2023-01-09T12:45:25.546Z,8.50
2023-01-09T12:50:46.188Z,8.52
2023-01-09T12:56:00.301Z,8.51
2023-01-09T13:01:08.953Z,8.50
2023-01-09T13:06:19.903Z,8.57
2023-01-09T13:11:40.574Z,8.59
2023-01-09T13:16:49.139Z,8.53
2023-01-09T13:21:57.014Z,8.52
2023-01-09T13:27:08.340Z,8.50
2023-01-09T13:32:50.394Z,8.56
2023-01-09T13:37:56.705Z,8.59
2023-01-09T13:43:09.353Z,8.51
2023-01-09T13:48:20.639Z,8.51
2023-01-09T13:53:32.278Z,8.52
2023-01-09T13:58:57.951Z,8.67
2023-01-09T14:04:16.064Z,8.63
2023-01-09T14:09:24.072Z,8.56
2023-01-09T14:14:33.179Z,8.54
2023-01-09T14:19:40.499Z,8.51
2023-01-09T14:24:49.497Z,8.53
2023-01-09T14:29:57.918Z,8.56
2023-01-09T14:35:18.069Z,8.51
2023-01-09T14:40:24.685Z,8.47
2023-01-09T14:45:32.508Z,8.54
2023-01-09T14:50:59.828Z,8.58
2023-01-09T14:56:07.933Z,8.79
2023-01-09T15:01:16.614Z,8.76
2023-01-09T15:06:25.221Z,8.79
2023-01-09T15:11:32.436Z,8.75
2023-01-09T15:16:38.300Z,8.65
2023-01-09T15:21:46.872Z,8.68
2023-01-09T15:26:57.793Z,8.72
2023-01-09T15:32:18.625Z,8.71
2023-01-09T15:37:30.152Z,8.68
2023-01-09T15:42:57.458Z,8.68
2023-01-09T15:48:32.651Z,8.63
2023-01-09T15:53:40.178Z,8.49
2023-01-09T15:58:50.433Z,8.52
2023-01-09T16:03:58.851Z,8.48
2023-01-09T16:09:05.718Z,8.37
2023-01-09T16:14:35.352Z,8.27
2023-01-09T16:19:51.913Z,8.18
2023-01-09T16:25:00.200Z,8.09
2023-01-09T16:30:08.767Z,7.91
2023-01-09T16:35:19.988Z,7.77
2023-01-09T16:40:27.153Z,7.67
2023-01-09T16:45:41.319Z,7.55
2023-01-09T16:50:47.342Z,7.46
2023-01-09T16:55:54.988Z,7.37
2023-01-09T17:01:00.623Z,7.34
2023-01-09T17:06:06.780Z,7.33
2023-01-09T17:11:21.095Z,7.32
2023-01-09T17:16:26.853Z,7.31
2023-01-09T17:21:32.959Z,7.28
2023-01-09T17:26:58.156Z,7.26
2023-01-09T17:32:04.843Z,7.26
2023-01-09T17:37:16.244Z,7.27
2023-01-09T17:42:21.667Z,7.22
2023-01-09T17:47:27.188Z,7.20
2023-01-09T17:52:33.223Z,7.15
2023-01-09T17:57:39.042Z,7.08
2023-01-09T18:02:44.751Z,7.02
2023-01-09T18:07:51.067Z,6.93
2023-01-09T18:12:57.556Z,6.92
2023-01-09T18:18:02.962Z,6.82
2023-01-09T18:23:09.719Z,6.75
2023-01-09T18:28:16.971Z,6.71
2023-01-09T18:33:23.423Z,6.67
2023-01-09T18:38:30.275Z,6.65
2023-01-09T18:43:35.910Z,6.54
2023-01-09T18:48:41.360Z,6.64
2023-01-09T18:53:46.956Z,6.69
2023-01-09T18:58:57.446Z,6.63
2023-01-09T19:04:03.081Z,6.59
2023-01-09T19:09:08.571Z,6.54
2023-01-09T19:14:14.021Z,6.46
2023-01-09T19:19:19.507Z,6.36
2023-01-09T19:24:25.730Z,6.33
2023-01-09T19:29:31.183Z,6.33
2023-01-09T19:34:37.185Z,6.23
2023-01-09T19:39:42.649Z,6.18
2023-01-09T19:44:48.130Z,6.15
2023-01-09T19:49:55.554Z,6.16
2023-01-09T19:55:01.053Z,6.29
2023-01-09T20:00:07.391Z,6.43
2023-01-09T20:05:14.465Z,6.51
2023-01-09T20:10:20.043Z,6.55
2023-01-09T20:15:25.514Z,6.70
2023-01-09T20:20:31.126Z,6.84
2023-01-09T20:25:36.615Z,6.98
2023-01-09T20:30:44.754Z,7.09
2023-01-09T20:35:50.284Z,7.11
2023-01-09T20:40:57.023Z,7.36
2023-01-09T20:46:05.585Z,7.41
2023-01-09T20:51:12.625Z,7.49
2023-01-09T20:56:17.996Z,7.57
2023-01-09T21:01:24.120Z,7.59
2023-01-09T21:06:29.740Z,7.60
2023-01-09T21:11:35.597Z,7.62
2023-01-09T21:16:41.172Z,7.64
2023-01-09T21:21:46.642Z,7.70
2023-01-09T21:26:52.761Z,7.71
2023-01-09T21:31:58.342Z,7.81
2023-01-09T21:37:03.954Z,7.76
2023-01-09T21:42:29.326Z,7.85
2023-01-09T21:47:34.849Z,7.89
2023-01-09T21:52:40.384Z,7.94
2023-01-09T21:57:45.961Z,7.99
2023-01-09T22:02:52.004Z,8.00
2023-01-09T22:07:57.589Z,8.08
2023-01-09T22:13:17.244Z,8.02
2023-01-09T22:18:22.900Z,7.97
2023-01-09T22:23:28.492Z,7.93
2023-01-09T22:28:34.014Z,7.92
2023-01-09T22:33:39.706Z,7.89
2023-01-09T22:38:45.554Z,7.88
2023-01-09T22:43:51.088Z,7.87
2023-01-09T22:48:56.524Z,7.91
2023-01-09T22:54:02.606Z,7.98
2023-01-09T22:59:08.061Z,7.97
2023-01-09T23:04:16.675Z,7.93
2023-01-09T23:09:22.257Z,9.02
2023-01-09T23:14:27.657Z,8.17
2023-01-09T23:19:35.223Z,8.03
2023-01-09T23:24:40.666Z,7.95
2023-01-09T23:29:46.600Z,7.86
2023-01-09T23:34:53.041Z,7.83
2023-01-09T23:39:58.641Z,7.81
2023-01-09T23:45:04.204Z,7.69
2023-01-09T23:50:10.833Z,7.63
2023-01-09T23:55:16.448Z,7.66
